LIEO/OLB METAR and TAF weather

Enter ICAO airport designator
Station Type Date Time Source
LIEO METAR 2020/09/26 21:50 UTC NOAA

LIEO 262150Z 25013KT 9999 FEW050 18/07 Q1005


Station Type Date Time Source
LIEO Decoded METAR 2020/09/26 21:50 UTC NOAA

Olbia / Costa Smeralda, Italy (LIEO) 40-54N 009-31E 13M
Sep 26, 2020 - 05:50 PM EDT / 2020.09.26 2150 UTC
Wind: from the WSW (250 degrees) at 15 MPH (13 KT):0
Visibility: greater than 7 mile(s):0
Sky conditions: mostly clear
Temperature: 64 F (18 C)
Dew Point: 44 F (7 C)
Relative Humidity: 48%
Pressure (altimeter): 29.68 in. Hg (1005 hPa)
ob: LIEO 262150Z 25013KT 9999 FEW050 18/07 Q1005
cycle: 22

Station Type Date Time Source
LIEO TAF 2020/09/26 18:21 UTC NOAA

TAF LIEO 261700Z 2618/2718 26025G35KT 9999 SCT030
BECMG 2700/2702 VRB05KT
TEMPO 2700/2707 4000 TSRA
BECMG 2706/2708 26018G28KT

Example: see airport list